Latest Weather Observations for Yulara

IDD60801

Issued at 10:01 am CST Tuesday 2 March 2021 (issued every 10 minutes, with the page automatically refreshed every 10 minutes)

About weather observations | Map of weather stations | Latest weather observations for NT | Other Formats
Station Details ID: 015635 Name: YULARA AIRPORT Lat: -25.19 Lon: 130.97 Height: 492.0 m
Data from the previous 72 hours. | See also: Recent months at Yulara
Date/Time
CST
Temp
°C
App
Temp
°C
Dew
Point
°C
Rel
Hum
%
Delta-T
°C
Wind Press
QNH
hPa
Press
MSL
hPa
Rain since
9am
mm
Dir  Spd
km/h
Gust
km/h
Spd
kts
Gust
kts
02/10:00am 34.6 31.8 2.2 13 16.9 WNW 6 7 3 4 1012.9 1009.6 0.0
02/09:30am 33.1 31.4 2.1 14 16.0 CALM 0 2 0 1 1012.8 1009.5 0.0
02/09:00am 31.6 28.9 2.7 16 14.9 SE 6 9 3 5 1012.6 1009.3 0.0
02/08:30am 28.9 25.8 3.7 20 13.0 SSE 9 13 5 7 1012.5 1009.2 0.0
02/08:00am 26.4 23.7 5.4 26 11.0 SSW 9 11 5 6 1012.6 1009.3 0.0
02/07:30am 23.6 20.5 5.5 31 9.4 S 11 15 6 8 1012.5 1009.2 0.0
02/07:00am 22.0 19.2 5.0 33 8.6 SW 9 11 5 6 1011.9 1008.6 0.0
02/06:30am 22.1 19.2 4.7 32 8.8 S 9 11 5 6 1011.3 1008.0 0.0
02/06:00am 22.4 19.5 4.5 31 9.0 SSW 9 11 5 6 1011.2 1007.9 0.0
02/05:30am 23.1 20.7 4.1 29 9.6 SSE 6 7 3 4 1010.9 1007.6 0.0
02/05:00am 24.0 21.6 4.4 28 10.0 ESE 6 13 3 7 1010.8 1007.5 0.0
02/04:30am 23.3 20.9 5.2 31 9.3 SE 7 9 4 5 1010.7 1007.4 0.0
02/04:00am 25.0 22.7 4.7 27 10.4 SE 6 7 3 4 1010.7 1007.4 0.0
02/03:30am 24.9 23.9 5.7 29 10.1 CALM 0 0 0 0 1010.7 1007.4 0.0
02/03:00am 24.6 23.7 5.9 30 9.8 CALM 0 0 0 0 1010.7 1007.4 0.0
02/02:30am 25.0 22.5 4.7 27 10.4 SE 7 11 4 6 1010.8 1007.5 0.0
02/02:00am 28.5 24.9 2.7 19 13.1 NE 11 13 6 7 1010.9 1007.6 0.0
02/01:30am 28.6 25.1 3.5 20 12.9 NE 11 15 6 8 1010.8 1007.5 0.0
02/01:00am 26.0 24.0 7.1 30 10.2 NE 7 9 4 5 1010.9 1007.6 0.0
02/12:30am 25.8 25.2 7.4 31 10.0 CALM 0 0 0 0 1011.1 1007.8 0.0
02/12:00am 26.9 24.9 6.3 27 11.0 SSE 6 6 3 3 1011.1 1007.8 0.0
 
Date/Time
CST
Temp
°C
App
Temp
°C
Dew
Point
°C
Rel
Hum
%
Delta-T
°C
Wind Press
QNH
hPa
Press
MSL
hPa
Rain since
9am
mm
Dir  Spd
km/h
Gust
km/h
Spd
kts
Gust
kts
01/11:30pm 28.2 26.0 5.1 23 12.2 SE 6 7 3 4 1011.0 1007.7 0.0
01/11:00pm 31.5 28.5 4.3 18 14.4 E 9 11 5 6 1011.2 1007.9 0.0
01/10:30pm 32.2 29.0 4.9 18 14.7 ESE 11 15 6 8 1011.0 1007.7 0.0
01/10:00pm 28.0 25.5 6.7 26 11.5 SE 9 13 5 7 1010.7 1007.4 0.0
01/09:30pm 29.9 28.7 4.5 20 13.4 CALM 0 0 0 0 1010.2 1006.9 0.0
01/09:00pm 30.1 29.2 6.1 22 13.0 CALM 0 0 0 0 1010.0 1006.7 0.0
01/08:30pm 32.4 30.6 3.4 16 15.3 NNW 2 6 1 3 1009.7 1006.4 0.0
01/08:00pm 33.6 31.0 4.3 16 15.7 NNW 7 9 4 5 1009.5 1006.2 0.0
01/07:30pm 35.4 32.9 3.9 14 17.0 N 6 9 3 5 1009.1 1005.8 0.0
01/07:00pm 37.7 35.7 2.2 11 18.8 SW 2 7 1 4 1008.9 1005.6 0.0
01/06:30pm 37.6 34.4 0.8 10 19.1 WNW 7 9 4 5 1008.8 1005.5 0.0
01/06:00pm 37.5 33.4 2.1 11 18.8 NNW 13 19 7 10 1008.7 1005.4 0.0
01/05:30pm 38.3 33.5 2.7 11 19.1 N 17 28 9 15 1008.5 1005.1 0.0
01/05:00pm 38.9 35.1 1.8 10 19.7 NW 11 19 6 10 1008.5 1005.1 0.0
01/04:30pm 38.7 34.7 3.0 11 19.3 NE 13 24 7 13 1008.7 1005.4 0.0
01/04:00pm 39.6 35.1 2.3 10 20.0 NNW 15 28 8 15 1008.7 1005.4 0.0
01/03:30pm 39.1 35.3 1.9 10 19.8 NW 11 17 6 9 1008.9 1005.6 0.0
01/03:00pm 38.6 35.0 2.9 11 19.3 NNW 11 19 6 10 1009.2 1005.9 0.0
01/02:30pm 39.1 33.9 3.3 11 19.5 NNW 20 30 11 16 1009.5 1006.2 0.0
01/02:00pm 38.9 34.2 3.1 11 19.4 NNE 17 26 9 14 1009.9 1006.6 0.0
01/01:30pm 38.5 34.7 4.1 12 18.9 NNW 13 32 7 17 1010.1 1006.8 0.0
01/01:00pm 37.5 33.4 4.4 13 18.2 NNW 15 24 8 13 1010.7 1007.4 0.0
01/12:30pm 37.1 32.2 4.1 13 18.0 NW 19 32 10 17 1011.0 1007.7 0.0
01/12:00pm 37.8 33.6 5.7 14 18.0 NW 17 26 9 14 1011.4 1008.1 0.0
01/11:30am 36.3 31.5 4.6 14 17.3 NW 19 28 10 15 1011.9 1008.6 0.0
01/11:00am 35.9 30.8 3.2 13 17.5 N 19 32 10 17 1012.3 1009.1 0.0
01/10:30am 35.3 30.0 4.8 15 16.7 N 22 30 12 16 1012.6 1009.3 0.0
01/10:00am 34.6 29.7 4.2 15 16.4 N 19 30 10 16 1012.8 1009.5 0.0
01/09:30am 32.4 28.9 3.4 16 15.2 N 11 17 6 9 1012.8 1009.5 0.0
01/09:00am 29.8 26.7 3.7 19 13.6 NE 9 15 5 8 1012.6 1008.8 0.0
01/08:30am 28.4 26.1 4.6 22 12.5 SE 6 9 3 5 1012.3 1008.6 0.0
01/08:00am 25.1 24.3 6.3 30 9.9 CALM 0 0 0 0 1012.1 1008.4 0.0
01/07:30am 22.8 20.6 6.1 34 8.7 S 7 11 4 6 1011.9 1008.1 0.0
01/07:00am 20.9 19.5 5.3 36 7.9 SSW 2 13 1 7 1011.3 1007.5 0.0
01/06:30am 20.8 19.0 5.2 36 7.9 WSW 4 7 2 4 1010.8 1007.0 0.0
01/06:00am 20.7 19.9 6.3 39 7.4 CALM 0 4 0 2 1010.5 1006.7 0.0
01/05:30am 22.0 20.9 5.0 33 8.6 CALM 0 0 0 0 1010.5 1006.7 0.0
01/05:00am 23.6 21.1 5.0 30 9.5 E 7 11 4 6 1010.4 1006.6 0.0
01/04:30am 23.9 22.0 4.8 29 9.8 S 4 13 2 7 1010.2 1006.5 0.0
01/04:00am 24.1 20.7 4.0 27 10.1 SSW 11 13 6 7 1010.2 1006.5 0.0
01/03:30am 24.1 21.1 4.0 27 10.2 WSW 9 13 5 7 1009.8 1006.0 0.0
01/03:00am 25.0 21.5 3.6 25 10.8 WNW 11 17 6 9 1010.0 1006.2 0.0
01/02:30am 26.9 23.5 4.0 23 11.8 E 11 15 6 8 1010.1 1006.3 0.0
01/02:00am 27.3 24.2 3.7 22 12.1 ENE 9 13 5 7 1010.1 1006.3 0.0
01/01:30am 25.1 22.7 5.3 28 10.3 SSW 7 9 4 5 1009.8 1006.0 0.0
01/01:00am 24.2 23.4 6.5 32 9.3 CALM 0 0 0 0 1009.8 1006.0 0.0
01/12:30am 25.2 24.2 5.4 28 10.3 CALM 0 0 0 0 1009.9 1006.1 0.0
01/12:00am 25.1 24.3 6.3 30 10.0 CALM 0 0 0 0 1009.8 1006.0 0.0
 
Date/Time
CST
Temp
°C
App
Temp
°C
Dew
Point
°C
Rel
Hum
%
Delta-T
°C
Wind Press
QNH
hPa
Press
MSL
hPa
Rain since
9am
mm
Dir  Spd
km/h
Gust
km/h
Spd
kts
Gust
kts
28/11:30pm 26.8 25.4 3.3 22 11.9 CALM 0 0 0 0 1009.8 1006.0 0.0
28/11:00pm 27.4 25.9 3.2 21 12.3 CALM 0 0 0 0 1010.0 1006.2 0.0
28/10:30pm 28.1 27.0 5.0 23 12.2 CALM 0 0 0 0 1010.0 1006.2 0.0
28/10:00pm 28.5 25.9 3.4 20 12.9 WNW 6 7 3 4 1010.0 1006.2 0.0
28/09:30pm 29.7 26.5 2.9 18 13.8 N 9 9 5 5 1009.8 1006.0 0.0
28/09:00pm 31.0 27.7 2.3 16 14.7 N 9 11 5 6 1009.5 1005.7 0.0
28/08:30pm 32.3 28.8 1.4 14 15.7 NNE 9 11 5 6 1009.2 1005.4 0.0
28/08:00pm 33.1 29.2 1.0 13 16.3 NNE 11 13 6 7 1008.9 1005.1 0.0
28/07:30pm 34.2 30.6 0.8 12 17.0 N 9 13 5 7 1008.6 1004.8 0.0
28/07:00pm 36.0 31.5 -0.4 10 18.4 NNE 13 19 7 10 1008.4 1004.6 0.0
28/06:30pm 36.5 31.3 0.0 10 18.6 N 17 26 9 14 1008.2 1004.3 0.0
28/06:00pm 37.2 32.4 0.5 10 19.0 N 15 22 8 12 1007.9 1004.1 0.0
28/05:30pm 37.8 32.9 -0.5 9 19.6 NNW 15 24 8 13 1007.8 1004.0 0.0
28/05:20pm 37.6 32.3 -0.6 9 19.4 ENE 17 44 9 24 1007.5 1003.7 0.0
28/05:00pm 37.2 32.6 -0.9 9 19.2 N 13 20 7 11 1007.9 1004.1 0.0
28/04:30pm 37.7 32.0 -0.6 9 19.5 NNW 19 32 10 17 1007.9 1004.1 0.0
28/04:00pm 38.6 34.5 0.1 9 19.9 SW 11 15 6 8 1008.2 1004.3 0.0
28/03:30pm 37.1 32.7 0.4 10 18.9 NW 13 20 7 11 1008.5 1004.7 0.0
28/03:00pm 37.6 33.4 -0.6 9 19.4 NW 11 20 6 11 1008.8 1005.0 0.0
28/02:30pm 37.2 32.1 0.5 10 19.0 WNW 17 30 9 16 1009.2 1005.4 0.0
28/02:00pm 37.6 32.3 -0.6 9 19.4 NNW 17 32 9 17 1009.5 1005.7 0.0
28/01:30pm 37.0 31.5 0.4 10 18.8 NNW 19 33 10 18 1009.8 1006.0 0.0
28/01:00pm 36.8 30.7 0.2 10 18.7 NNW 22 35 12 19 1010.1 1006.3 0.0
28/12:30pm 37.0 30.1 0.4 10 18.8 NNW 26 35 14 19 1010.5 1006.7 0.0
28/12:00pm 35.7 28.9 0.7 11 18.0 NNW 26 39 14 21 1010.9 1007.1 0.0
28/11:30am 35.3 29.6 0.4 11 17.8 NNW 20 28 11 15 1011.3 1007.5 0.0
28/11:00am 34.7 28.5 -0.1 11 17.5 NNW 22 43 12 23 1011.6 1007.8 0.0
28/10:30am 32.9 27.3 -0.2 12 16.5 NNW 19 26 10 14 1012.0 1008.2 0.0
28/10:00am 31.9 26.3 0.1 13 15.8 N 19 26 10 14 1012.1 1008.4 0.0
28/09:30am 31.1 25.4 -0.5 13 15.4 NNE 19 26 10 14 1012.0 1008.2 0.0
28/09:00am 29.1 24.0 0.7 16 14.0 NNE 17 22 9 12 1011.9 1008.1 0.0
28/08:30am 27.3 23.2 0.1 17 13.1 NE 11 20 6 11 1011.7 1007.9 0.0
28/08:00am 25.4 21.8 0.8 20 11.8 E 9 13 5 7 1011.3 1007.5 0.0
28/07:30am 22.7 19.3 1.7 25 10.1 SE 9 13 5 7 1011.0 1007.2 0.0
28/07:00am 21.1 17.2 1.4 27 9.3 SE 11 13 6 7 1010.6 1006.8 0.0
28/06:30am 20.8 17.4 1.6 28 9.1 SE 9 11 5 6 1009.9 1006.1 0.0
28/06:00am 19.7 16.4 2.6 32 8.2 SE 9 11 5 6 1009.5 1005.7 0.0
28/05:30am 19.9 16.8 1.4 29 8.6 SE 7 9 4 5 1009.2 1005.4 0.0
28/05:00am 22.7 19.2 1.1 24 10.2 SSE 9 11 5 6 1009.1 1005.3 0.0
28/04:30am 23.9 20.3 0.3 21 11.1 E 9 15 5 8 1008.9 1005.1 0.0
28/04:00am 24.8 19.6 0.3 20 11.6 ENE 17 19 9 10 1008.8 1005.0 0.0
28/03:30am 25.3 20.5 0.0 19 12.0 E 15 19 8 10 1008.8 1005.0 0.0
28/03:00am 25.7 20.5 0.4 19 12.1 E 17 22 9 12 1008.9 1005.1 0.0
28/02:30am 25.9 20.8 0.5 19 12.2 E 17 19 9 10 1009.0 1005.2 0.0
28/02:00am 25.4 20.7 0.8 20 11.8 ESE 15 19 8 10 1009.1 1005.3 0.0
28/01:30am 24.2 20.9 2.4 24 10.7 ESE 9 11 5 6 1009.3 1005.5 0.0
28/01:00am 25.0 22.0 1.8 22 11.3 SSE 7 13 4 7 1009.4 1005.6 0.0
28/12:30am 25.7 22.7 1.1 20 11.9 NE 6 9 3 5 1009.7 1005.9 0.0
28/12:00am 26.5 22.2 1.0 19 12.4 NE 13 20 7 11 1009.9 1006.1 0.0
 
Date/Time
CST
Temp
°C
App
Temp
°C
Dew
Point
°C
Rel
Hum
%
Delta-T
°C
Wind Press
QNH
hPa
Press
MSL
hPa
Rain since
9am
mm
Dir  Spd
km/h
Gust
km/h
Spd
kts
Gust
kts
27/11:30pm 27.6 24.0 0.4 17 13.2 E 9 13 5 7 1009.6 1005.8 0.0
27/11:00pm 27.7 23.9 -0.4 16 13.4 ESE 9 13 5 7 1009.5 1005.7 0.0
27/10:30pm 27.5 23.9 0.3 17 13.2 ESE 9 11 5 6 1009.4 1005.6 0.0
27/10:00pm 30.0 25.9 -0.4 14 14.8 E 11 15 6 8 1009.1 1005.3 0.0
27/09:30pm 30.4 26.5 0.9 15 14.7 E 11 13 6 7 1009.0 1005.2 0.0
27/09:00pm 30.4 26.8 0.9 15 14.7 ESE 9 11 5 6 1008.7 1004.9 0.0
27/08:30pm 29.2 27.9 4.0 20 13.2 CALM 0 0 0 0 1008.4 1004.6 0.0
27/08:00pm 30.8 28.0 2.1 16 14.6 S 6 9 3 5 1007.9 1004.1 0.0
27/07:30pm 33.8 31.0 -0.7 11 17.1 SE 4 9 2 5 1007.5 1003.7 0.0
27/07:00pm 35.3 33.0 -2.3 9 18.3 CALM 0 7 0 4 1007.2 1003.4 0.0
27/06:30pm 36.3 33.0 -1.6 9 18.9 SSW 6 9 3 5 1007.0 1003.2 0.0
27/06:00pm 35.7 32.3 -2.0 9 18.6 S 6 9 3 5 1006.8 1003.0 0.0
27/05:30pm 36.3 31.6 -1.6 9 18.9 W 13 19 7 10 1006.6 1002.8 0.0
27/05:00pm 36.9 32.7 -1.1 9 19.1 NNW 11 22 6 12 1006.5 1002.6 0.0
27/04:30pm 37.1 32.5 -1.0 9 19.2 NW 13 24 7 13 1006.5 1002.6 0.0
27/04:00pm 36.3 31.2 -1.6 9 18.8 NNE 15 26 8 14 1006.6 1002.8 0.0
27/03:30pm 36.6 32.3 -1.4 9 19.0 N 11 28 6 15 1007.0 1003.2 0.0
27/03:00pm 37.0 31.6 -1.1 9 19.2 WNW 17 39 9 21 1007.0 1003.2 0.0
27/02:30pm 35.6 30.1 -2.1 9 18.5 W 17 26 9 14 1007.4 1003.6 0.0
27/02:00pm 36.1 30.7 -1.7 9 18.7 NW 17 32 9 17 1008.0 1004.2 0.0
27/01:30pm 36.2 29.0 -1.7 9 18.8 NNW 26 44 14 24 1008.4 1004.6 0.0
27/01:25pm 36.5 30.1 -1.4 9 18.9 NNW 22 44 12 24 1008.4 1004.6 0.0
27/01:00pm 35.2 29.3 -2.4 9 18.3 NW 19 33 10 18 1008.8 1005.0 0.0
27/12:30pm 34.5 29.3 -2.9 9 18.0 NNW 15 26 8 14 1009.3 1005.5 0.0
27/12:00pm 34.0 27.6 -1.9 10 17.5 NNW 22 33 12 18 1009.8 1006.0 0.0
27/11:30am 32.8 26.8 -1.5 11 16.7 N 20 30 11 16 1010.4 1006.6 0.0
27/11:00am 31.6 25.5 -2.4 11 16.1 NNW 20 33 11 18 1010.7 1006.9 0.0
27/10:30am 31.1 24.9 -2.8 11 15.9 NNW 20 28 11 15 1010.9 1007.1 0.0

Other formats

Comma delimited format used in spreadsheet applications
http://www.bom.gov.au/fwo/IDD60801/IDD60801.94462.axf

JavaScript Object Notation format (JSON) in row-major order
http://www.bom.gov.au/fwo/IDD60801/IDD60801.94462.json

Data quality

Most of these data are generated automatically and are frequently updated. Quality checks on data are not normally performed. It is possible for incorrect values to appear. Refer to information at About Latest Weather Observations and please check the disclaimer before using these data.